Time;durP1;ratioP1;P1;durP2;ratioP2;P2;SDS_P1;SDS_P2;PMS_P1;PMS_P2;Temp;Humidity;BMP_temperature;BMP_pressure;BME280_temperature;BME280_humidity;BME280_pressure;Samples;Min_cycle;Max_cycle;Signal;HPM_P1;HPM_P2
2021/08/19 00:00:52;;;;;;;9.07;4.95;;;;;;;15.69;79.43;100450.38;5134656;27;20118;-60
2021/08/19 00:03:17;;;;;;;9.30;4.80;;;;;;;15.65;79.88;100449.88;5134423;27;20023;-60
2021/08/19 00:05:43;;;;;;;6.75;4.15;;;;;;;15.66;80.11;100456.09;5134497;27;20035;-62
2021/08/19 00:08:08;;;;;;;6.68;3.78;;;;;;;15.60;80.37;100441.41;5134412;27;20023;-62
2021/08/19 00:10:34;;;;;;;4.90;3.35;;;;;;;15.62;80.17;100450.19;5133143;27;20023;-62
2021/08/19 00:13:00;;;;;;;8.57;3.90;;;;;;;15.58;79.44;100448.81;5134444;27;20055;-62
2021/08/19 00:15:27;;;;;;;6.22;4.10;;;;;;;15.54;79.07;100441.19;5133135;27;20038;-62
2021/08/19 00:17:52;;;;;;;6.35;4.18;;;;;;;15.55;79.48;100457.25;5133257;27;20073;-62
2021/08/19 00:20:18;;;;;;;7.35;4.18;;;;;;;15.52;79.04;100456.75;5134247;27;20042;-62
2021/08/19 00:22:44;;;;;;;7.18;4.50;;;;;;;15.49;79.37;100457.06;5134371;27;20038;-62
2021/08/19 00:25:10;;;;;;;5.85;4.15;;;;;;;15.45;80.01;100450.28;5134109;27;20027;-62
2021/08/19 00:27:35;;;;;;;5.57;4.03;;;;;;;15.37;80.37;100442.13;5134122;27;20424;-61
2021/08/19 00:30:01;;;;;;;6.78;4.22;;;;;;;15.38;80.64;100447.38;5134251;27;20019;-61
2021/08/19 00:32:28;;;;;;;6.90;4.00;;;;;;;15.33;80.55;100448.84;5134153;27;20023;-61
2021/08/19 00:34:53;;;;;;;7.80;3.90;;;;;;;15.18;80.44;100429.69;5133753;27;20363;-61
2021/08/19 00:37:19;;;;;;;7.38;4.28;;;;;;;15.24;80.22;100447.09;5133834;27;20060;-62
2021/08/19 00:39:45;;;;;;;5.32;3.90;;;;;;;15.21;80.86;100442.03;5133817;27;20019;-61
2021/08/19 00:42:12;;;;;;;7.38;3.80;;;;;;;15.13;81.39;100431.19;5133533;27;20448;-62
2021/08/19 00:44:47;;;;;;;5.20;3.85;;;;;;;15.08;81.70;100430.81;5133509;27;20486;-61
2021/08/19 00:47:13;;;;;;;8.43;4.72;;;;;;;15.08;81.09;100442.47;5133559;27;20039;-61
2021/08/19 00:49:43;;;;;;;7.78;3.85;;;;;;;15.00;81.88;100438.88;5133670;27;20084;-61
2021/08/19 00:52:10;;;;;;;7.93;4.60;;;;;;;15.00;82.60;100447.81;5133592;27;20019;-61
2021/08/19 00:54:36;;;;;;;8.73;4.57;;;;;;;14.92;82.90;100442.38;5133487;27;20035;-62
2021/08/19 00:57:04;;;;;;;6.50;4.63;;;;;;;14.89;83.08;100439.13;5133953;27;20031;-61
2021/08/19 00:59:30;;;;;;;6.93;4.68;;;;;;;14.89;83.00;100448.09;5132192;27;20015;-61
2021/08/19 01:01:56;;;;;;;6.45;4.05;;;;;;;14.84;82.97;100436.94;5133464;27;20040;-61
2021/08/19 01:04:22;;;;;;;9.43;5.32;;;;;;;14.87;82.85;100441.16;5133301;27;20030;-62
2021/08/19 01:06:48;;;;;;;9.10;5.03;;;;;;;14.87;83.86;100438.47;5133456;27;20035;-62
2021/08/19 01:09:16;;;;;;;9.75;5.22;;;;;;;14.87;83.90;100447.38;5133158;27;20115;-62
2021/08/19 01:11:44;;;;;;;6.03;4.00;;;;;;;14.86;83.99;100456.50;5133455;27;20023;-62
2021/08/19 01:14:14;;;;;;;6.85;4.82;;;;;;;14.78;83.48;100445.66;5133407;27;20019;-61
2021/08/19 01:16:41;;;;;;;7.15;4.50;;;;;;;14.83;83.75;100445.19;5133147;27;20034;-61
2021/08/19 01:19:07;;;;;;;6.50;4.57;;;;;;;14.75;84.40;100435.19;5132985;27;20030;-62
2021/08/19 01:21:32;;;;;;;6.38;4.63;;;;;;;14.80;84.58;100459.00;5133600;27;20031;-62
2021/08/19 01:23:58;;;;;;;8.35;5.00;;;;;;;14.76;84.61;100458.47;5133048;27;20399;-61
2021/08/19 01:26:25;;;;;;;7.15;4.65;;;;;;;14.74;83.74;100443.44;5134177;27;20027;-60
2021/08/19 01:28:55;;;;;;;5.80;3.97;;;;;;;14.71;84.34;100452.72;5134259;27;20428;-60
2021/08/19 01:31:25;;;;;;;8.05;5.03;;;;;;;14.68;84.16;100455.72;5134435;27;20057;-60
2021/08/19 01:33:52;;;;;;;8.75;4.95;;;;;;;14.62;84.03;100442.84;5132859;27;20114;-62
2021/08/19 01:36:17;;;;;;;8.18;4.90;;;;;;;14.64;83.92;100450.78;5133882;27;20039;-61
2021/08/19 01:38:44;;;;;;;8.02;5.38;;;;;;;14.62;84.23;100459.03;5134242;27;20023;-61
2021/08/19 01:41:11;;;;;;;9.25;4.95;;;;;;;14.59;84.16;100451.25;5131898;27;20024;-61
2021/08/19 01:43:39;;;;;;;6.85;4.63;;;;;;;14.58;84.72;100452.28;5133194;27;20107;-61
2021/08/19 01:46:05;;;;;;;7.68;4.35;;;;;;;14.54;84.09;100445.47;5133403;27;20026;-60
2021/08/19 01:48:31;;;;;;;10.00;4.55;;;;;;;14.47;84.22;100447.09;5133181;27;20023;-61
2021/08/19 01:50:57;;;;;;;8.95;4.57;;;;;;;14.46;83.70;100450.81;5134377;27;20030;-59
2021/08/19 01:53:23;;;;;;;7.32;4.60;;;;;;;14.41;83.50;100447.72;5137152;27;20027;-60
2021/08/19 01:55:54;;;;;;;6.70;4.35;;;;;;;14.38;84.05;100442.63;5137095;27;20492;-60
2021/08/19 01:58:19;;;;;;;9.40;4.28;;;;;;;14.41;84.62;100455.81;5134779;27;20019;-60
2021/08/19 02:00:46;;;;;;;7.97;4.88;;;;;;;14.38;85.00;100449.91;5131185;27;20046;-61
2021/08/19 02:03:12;;;;;;;7.55;4.60;;;;;;;14.38;84.63;100456.13;5132459;27;20500;-61
2021/08/19 02:05:40;;;;;;;5.30;4.20;;;;;;;14.30;85.14;100442.59;5132856;27;20043;-61
2021/08/19 02:08:07;;;;;;;8.25;4.60;;;;;;;14.32;84.71;100445.94;5132667;27;20480;-61
2021/08/19 02:10:34;;;;;;;6.82;4.75;;;;;;;14.30;84.93;100458.78;5132375;27;20029;-60
2021/08/19 02:12:59;;;;;;;7.32;5.22;;;;;;;14.28;84.96;100457.25;5132139;27;20554;-60
2021/08/19 02:15:25;;;;;;;7.10;4.63;;;;;;;14.27;85.27;100466.31;5133636;27;20047;-60
2021/08/19 02:17:50;;;;;;;7.90;4.90;;;;;;;14.25;85.23;100458.38;5133127;27;20080;-61
2021/08/19 02:20:16;;;;;;;8.90;5.38;;;;;;;14.23;86.01;100452.31;5133367;27;20098;-60
2021/08/19 02:22:41;;;;;;;7.70;4.80;;;;;;;14.24;85.95;100456.69;5133442;27;20053;-59
2021/08/19 02:25:08;;;;;;;7.10;5.55;;;;;;;14.23;86.50;100459.53;5133415;27;20074;-60
2021/08/19 02:27:33;;;;;;;7.05;5.20;;;;;;;14.20;86.96;100454.41;5132848;27;20459;-61
2021/08/19 02:29:58;;;;;;;7.40;4.82;;;;;;;14.19;86.17;100460.81;5131902;27;20019;-61
2021/08/19 02:32:25;;;;;;;6.22;4.55;;;;;;;14.16;85.75;100453.03;5131727;27;20047;-61
2021/08/19 02:34:52;;;;;;;9.95;5.70;;;;;;;14.12;86.50;100452.47;5131763;27;20494;-61
2021/08/19 02:37:19;;;;;;;8.55;5.63;;;;;;;14.10;87.47;100449.13;5132115;27;20094;-61
2021/08/19 02:39:44;;;;;;;9.20;6.05;;;;;;;14.11;87.91;100455.34;5131830;27;20034;-59
2021/08/19 02:42:10;;;;;;;7.93;5.53;;;;;;;14.04;88.50;100443.47;5131668;27;20023;-60
2021/08/19 02:44:36;;;;;;;8.95;5.80;;;;;;;14.07;88.11;100451.25;5130374;27;20054;-62
2021/08/19 02:47:01;;;;;;;8.80;5.28;;;;;;;14.08;87.83;100461.88;5131881;27;20072;-61
2021/08/19 02:49:27;;;;;;;8.65;5.57;;;;;;;14.08;88.03;100464.59;5131786;27;20015;-61
2021/08/19 02:51:52;;;;;;;9.20;5.22;;;;;;;14.05;88.08;100456.81;5131836;27;20043;-61
2021/08/19 02:54:17;;;;;;;7.80;5.15;;;;;;;14.06;88.57;100458.47;5131740;27;20027;-61
2021/08/19 02:56:43;;;;;;;7.70;5.05;;;;;;;14.04;88.82;100463.22;5131626;27;20023;-60
2021/08/19 02:59:08;;;;;;;9.07;5.15;;;;;;;14.05;89.02;100462.19;5132018;27;20076;-61
2021/08/19 03:01:34;;;;;;;7.45;5.28;;;;;;;14.04;88.67;100460.50;5131724;27;20019;-62
2021/08/19 03:03:59;;;;;;;8.45;5.25;;;;;;;14.03;88.26;100461.53;5131292;27;20042;-63
2021/08/19 03:06:25;;;;;;;7.90;5.90;;;;;;;13.99;88.17;100449.31;5131536;27;20039;-62
2021/08/19 03:08:50;;;;;;;9.43;5.38;;;;;;;13.97;87.40;100451.34;5131550;27;20394;-62
2021/08/19 03:11:16;;;;;;;12.13;5.80;;;;;;;14.03;88.07;100458.81;5131814;27;20031;-59
2021/08/19 03:13:41;;;;;;;11.20;5.80;;;;;;;14.04;88.17;100448.88;5131892;27;20019;-60
2021/08/19 03:16:07;;;;;;;12.07;6.28;;;;;;;14.04;88.35;100454.25;5131537;27;20019;-61
2021/08/19 03:18:33;;;;;;;9.50;5.95;;;;;;;14.01;87.67;100451.88;5131421;27;20030;-60
2021/08/19 03:20:58;;;;;;;9.15;5.30;;;;;;;13.97;87.49;100445.94;5131253;27;20030;-60
2021/08/19 03:23:24;;;;;;;8.40;5.50;;;;;;;13.98;87.66;100461.13;5131328;27;20458;-61
2021/08/19 03:25:50;;;;;;;9.85;5.80;;;;;;;13.97;86.67;100464.81;5131412;27;20015;-60
2021/08/19 03:28:15;;;;;;;8.98;5.35;;;;;;;13.96;87.26;100464.97;5131418;27;20027;-62
2021/08/19 03:30:42;;;;;;;7.97;5.65;;;;;;;13.94;87.04;100473.22;5131788;27;20046;-61
2021/08/19 03:33:08;;;;;;;10.43;6.70;;;;;;;13.91;87.18;100460.03;5131020;27;20027;-61
2021/08/19 03:35:33;;;;;;;9.65;6.13;;;;;;;13.91;87.50;100459.19;5130623;27;20028;-61
2021/08/19 03:37:59;;;;;;;10.02;6.03;;;;;;;13.87;87.42;100460.50;5131447;27;20470;-60
2021/08/19 03:40:26;;;;;;;9.05;5.85;;;;;;;13.88;88.08;100465.72;5131275;27;20478;-60
2021/08/19 03:42:51;;;;;;;9.45;6.20;;;;;;;13.85;88.17;100457.94;5131308;27;20023;-60
2021/08/19 03:45:19;;;;;;;10.20;6.05;;;;;;;13.77;87.98;100447.09;5131162;27;20024;-60
2021/08/19 03:47:48;;;;;;;9.65;6.13;;;;;;;13.80;88.47;100454.00;5129917;28;20498;-60
2021/08/19 03:50:13;;;;;;;9.45;6.43;;;;;;;13.80;88.32;100465.63;5130048;28;20426;-60
2021/08/19 03:52:39;;;;;;;9.38;6.07;;;;;;;13.78;88.58;100470.34;5131427;27;20072;-60
2021/08/19 03:55:05;;;;;;;10.65;6.45;;;;;;;13.76;89.02;100466.09;5134897;27;20023;-60
2021/08/19 03:57:31;;;;;;;14.68;6.28;;;;;;;13.75;88.99;100462.56;5134887;27;20019;-60
2021/08/19 03:59:56;;;;;;;10.05;5.90;;;;;;;13.70;89.39;100456.75;5134833;27;20026;-61
2021/08/19 04:02:22;;;;;;;9.35;6.50;;;;;;;13.75;89.98;100459.84;5135222;27;20046;-60
2021/08/19 04:04:48;;;;;;;8.95;6.45;;;;;;;13.77;89.63;100471.34;5134617;27;20482;-60
2021/08/19 04:07:13;;;;;;;9.98;6.40;;;;;;;13.70;90.53;100462.13;5135166;27;20509;-60
2021/08/19 04:09:39;;;;;;;10.50;6.68;;;;;;;13.77;90.44;100469.47;5134820;27;20031;-60
2021/08/19 04:12:04;;;;;;;11.13;6.72;;;;;;;13.77;90.98;100464.09;5134525;27;20487;-61
2021/08/19 04:14:31;;;;;;;13.52;6.90;;;;;;;13.78;91.54;100467.63;5134535;27;20027;-60
2021/08/19 04:16:57;;;;;;;11.32;6.45;;;;;;;13.80;91.33;100475.56;5134313;27;20138;-61
2021/08/19 04:19:22;;;;;;;11.70;7.93;;;;;;;13.84;91.52;100476.97;5134955;27;20054;-60
2021/08/19 04:21:48;;;;;;;9.43;6.75;;;;;;;13.86;92.05;100474.97;5134635;27;20023;-60
2021/08/19 04:24:13;;;;;;;9.88;6.68;;;;;;;13.92;92.78;100477.91;5134618;27;20053;-60
2021/08/19 04:26:39;;;;;;;9.73;6.95;;;;;;;13.97;92.63;100475.59;5134467;27;20038;-60
2021/08/19 04:29:04;;;;;;;13.18;7.28;;;;;;;14.07;93.22;100480.91;5134817;27;20057;-60
2021/08/19 04:31:30;;;;;;;10.77;7.38;;;;;;;14.15;93.38;100478.31;5134219;27;20071;-60
2021/08/19 04:33:56;;;;;;;14.18;7.88;;;;;;;14.24;93.56;100477.41;5133962;27;20049;-58
2021/08/19 04:36:22;;;;;;;14.25;8.05;;;;;;;14.34;93.09;100479.03;5134041;27;20031;-60
2021/08/19 04:38:47;;;;;;;14.45;8.25;;;;;;;14.43;93.13;100478.13;5134056;27;20514;-59
2021/08/19 04:41:13;;;;;;;9.95;7.60;;;;;;;14.57;93.09;100474.03;5132834;27;20027;-59
2021/08/19 04:43:38;;;;;;;13.90;8.50;;;;;;;14.72;92.98;100472.44;5133678;27;20050;-59
2021/08/19 04:46:04;;;;;;;9.63;7.45;;;;;;;14.88;93.02;100477.97;5133646;27;20037;-59
2021/08/19 04:48:29;;;;;;;11.52;8.38;;;;;;;15.04;92.45;100473.53;5133723;27;20076;-60
2021/08/19 04:50:54;;;;;;;14.85;7.85;;;;;;;15.21;92.22;100472.59;5134003;27;20467;-60
2021/08/19 04:53:20;;;;;;;12.02;7.97;;;;;;;15.35;91.52;100465.75;5133632;27;20030;-60
2021/08/19 04:55:46;;;;;;;10.70;7.75;;;;;;;15.57;90.91;100476.88;5132608;27;20457;-59
2021/08/19 04:58:11;;;;;;;14.82;8.43;;;;;;;15.74;89.78;100462.38;5132383;27;20035;-59
2021/08/19 05:00:37;;;;;;;9.88;7.18;;;;;;;15.93;89.10;100470.22;5133610;27;20093;-59
2021/08/19 05:03:02;;;;;;;11.23;7.78;;;;;;;16.12;87.99;100468.25;5133468;27;20019;-60
2021/08/19 05:05:28;;;;;;;12.35;7.82;;;;;;;16.28;86.79;100457.44;5132994;27;20469;-60
2021/08/19 05:07:53;;;;;;;11.77;7.43;;;;;;;16.51;85.50;100461.22;5133555;27;20505;-60
2021/08/19 05:10:19;;;;;;;12.48;7.72;;;;;;;16.71;84.63;100457.16;5133399;27;20019;-60
2021/08/19 05:12:44;;;;;;;12.40;7.35;;;;;;;16.90;83.54;100460.31;5133811;27;20083;-60
2021/08/19 05:15:10;;;;;;;11.73;7.88;;;;;;;17.08;81.88;100452.84;5132913;27;20772;-60
2021/08/19 05:17:36;;;;;;;11.63;7.82;;;;;;;17.27;79.96;100454.31;5132008;27;20018;-60
2021/08/19 05:20:01;;;;;;;12.63;7.95;;;;;;;17.44;79.13;100450.56;5132988;27;20271;-61
2021/08/19 05:22:27;;;;;;;12.15;7.43;;;;;;;17.64;78.51;100455.41;5133219;27;20106;-60
2021/08/19 05:24:52;;;;;;;10.35;7.00;;;;;;;17.85;78.02;100452.06;5132914;27;20015;-60
2021/08/19 05:27:18;;;;;;;11.88;7.05;;;;;;;18.06;76.64;100453.13;5133192;27;20051;-60
2021/08/19 05:29:43;;;;;;;13.15;7.75;;;;;;;18.29;75.42;100461.31;5132663;27;20034;-59
2021/08/19 05:32:08;;;;;;;11.10;7.82;;;;;;;18.48;74.69;100457.28;5132892;27;20023;-60
2021/08/19 05:34:34;;;;;;;11.70;7.88;;;;;;;18.71;73.78;100452.69;5132820;27;20026;-60
2021/08/19 05:36:59;;;;;;;12.55;7.45;;;;;;;18.89;72.91;100447.75;5132704;27;20039;-60
2021/08/19 05:39:25;;;;;;;12.50;6.93;;;;;;;19.07;71.99;100440.09;5132864;27;20038;-60
2021/08/19 05:41:50;;;;;;;9.10;7.03;;;;;;;19.31;71.17;100454.28;5132984;27;20019;-60
2021/08/19 05:44:16;;;;;;;14.43;7.13;;;;;;;19.49;70.63;100454.78;5132443;27;20047;-60
2021/08/19 05:46:41;;;;;;;12.43;7.70;;;;;;;19.67;70.15;100452.47;5132686;27;20039;-61
2021/08/19 05:49:08;;;;;;;8.95;7.15;;;;;;;19.87;69.52;100452.75;5132660;27;20106;-60
2021/08/19 05:51:33;;;;;;;13.35;7.55;;;;;;;20.07;68.48;100449.22;5132632;27;20073;-60
2021/08/19 05:53:59;;;;;;;14.10;7.38;;;;;;;20.19;68.10;100449.59;5132505;27;20039;-60
2021/08/19 05:56:24;;;;;;;8.77;6.97;;;;;;;20.34;67.54;100455.81;5132471;27;20110;-60
2021/08/19 05:58:50;;;;;;;9.10;7.18;;;;;;;20.48;66.88;100457.66;5132415;27;20514;-61
2021/08/19 06:01:15;;;;;;;10.77;6.55;;;;;;;20.63;65.90;100454.84;5131109;27;20023;-60
2021/08/19 06:03:41;;;;;;;12.73;6.63;;;;;;;20.76;65.65;100454.97;5131008;27;20037;-60
2021/08/19 06:06:06;;;;;;;11.55;6.78;;;;;;;20.97;64.19;100452.22;5132088;27;20027;-60
2021/08/19 06:08:32;;;;;;;10.75;6.13;;;;;;;21.09;64.42;100453.38;5132333;27;20069;-60
2021/08/19 06:10:57;;;;;;;11.32;6.43;;;;;;;21.21;63.87;100449.88;5132092;27;20047;-60
2021/08/19 06:13:23;;;;;;;9.93;6.85;;;;;;;21.40;63.51;100451.91;5132000;27;20027;-61
2021/08/19 06:15:48;;;;;;;7.13;5.25;;;;;;;21.58;63.02;100448.63;5131663;27;20027;-61
2021/08/19 06:18:14;;;;;;;7.88;5.65;;;;;;;21.73;61.83;100449.38;5131921;27;20027;-61
2021/08/19 06:20:39;;;;;;;9.40;6.57;;;;;;;21.91;61.28;100438.72;5132125;27;20023;-61
2021/08/19 06:23:11;;;;;;;9.27;6.50;;;;;;;22.05;61.23;100443.19;5131917;27;20451;-61
2021/08/19 06:25:39;;;;;;;9.18;6.90;;;;;;;22.17;60.54;100438.81;5131930;27;20027;-61
2021/08/19 06:28:05;;;;;;;12.77;7.80;;;;;;;22.24;59.96;100423.28;5131655;27;20101;-62
2021/08/19 06:30:32;;;;;;;13.00;7.82;;;;;;;22.35;59.99;100428.97;5132075;27;20502;-62
2021/08/19 06:32:59;;;;;;;12.30;7.68;;;;;;;22.54;59.59;100432.84;5132090;27;20457;-62
2021/08/19 06:35:24;;;;;;;13.07;8.52;;;;;;;22.71;58.91;100428.63;5123874;27;20172;-61
2021/08/19 06:37:50;;;;;;;11.77;8.27;;;;;;;22.87;57.97;100430.09;5132249;27;20106;-62
2021/08/19 06:40:15;;;;;;;11.90;8.30;;;;;;;22.96;57.18;100432.38;5131845;27;20027;-61
2021/08/19 06:42:41;;;;;;;9.57;7.38;;;;;;;23.14;56.32;100429.00;5131691;27;20022;-61
2021/08/19 06:45:07;;;;;;;9.60;7.22;;;;;;;23.26;56.43;100425.44;5130353;27;20083;-61
2021/08/19 06:47:34;;;;;;;10.98;6.97;;;;;;;23.43;55.73;100423.94;5131715;27;20057;-61
2021/08/19 06:49:59;;;;;;;8.88;6.15;;;;;;;23.57;55.52;100431.03;5131603;27;20019;-62
2021/08/19 06:52:25;;;;;;;8.75;6.30;;;;;;;23.76;54.72;100426.56;5131705;27;20015;-61
2021/08/19 06:54:50;;;;;;;10.48;6.68;;;;;;;23.91;53.85;100432.59;5132076;27;20087;-61
2021/08/19 06:57:16;;;;;;;6.85;5.60;;;;;;;23.96;53.82;100424.59;5131500;27;20105;-61
2021/08/19 06:59:41;;;;;;;8.50;6.15;;;;;;;24.10;53.41;100417.97;5131807;27;20030;-62
2021/08/19 07:02:07;;;;;;;6.50;5.35;;;;;;;24.26;53.32;100412.84;5131691;27;20039;-62
2021/08/19 07:04:32;;;;;;;7.07;5.50;;;;;;;24.44;52.59;100423.88;5131545;27;20046;-61
2021/08/19 07:06:58;;;;;;;8.90;6.10;;;;;;;24.59;52.24;100425.44;5131524;27;20039;-62
2021/08/19 07:09:23;;;;;;;9.93;6.40;;;;;;;24.66;51.75;100421.63;5131734;27;20026;-62
2021/08/19 07:11:49;;;;;;;10.38;6.50;;;;;;;24.74;51.05;100415.03;5131669;27;20046;-62
2021/08/19 07:14:14;;;;;;;10.07;5.38;;;;;;;24.75;51.20;100413.94;5131648;27;20386;-62
2021/08/19 07:16:40;;;;;;;8.90;5.50;;;;;;;24.85;51.20;100423.38;5130168;28;20065;-62
2021/08/19 07:19:05;;;;;;;9.32;5.95;;;;;;;24.90;51.01;100411.72;5131292;27;20087;-62
2021/08/19 07:21:32;;;;;;;6.85;5.80;;;;;;;25.04;50.72;100432.47;5131437;27;20023;-62
2021/08/19 07:23:57;;;;;;;6.93;6.03;;;;;;;25.13;50.25;100422.91;5131383;27;20031;-61
2021/08/19 07:26:23;;;;;;;8.43;6.13;;;;;;;25.24;50.32;100427.66;5131548;27;20027;-61
2021/08/19 07:28:51;;;;;;;7.95;5.93;;;;;;;25.34;50.29;100425.25;5135505;27;20023;-62
2021/08/19 07:31:16;;;;;;;7.60;6.18;;;;;;;25.47;50.00;100416.88;5135478;27;20023;-61
2021/08/19 07:33:42;;;;;;;6.75;5.00;;;;;;;25.53;49.66;100416.78;5135384;27;20042;-61
2021/08/19 07:36:07;;;;;;;6.45;5.05;;;;;;;25.71;49.26;100421.44;5135158;27;20086;-61
2021/08/19 07:38:33;;;;;;;7.40;5.18;;;;;;;25.79;49.17;100413.72;5133920;27;20019;-61
2021/08/19 07:40:59;;;;;;;6.70;4.93;;;;;;;25.86;48.60;100413.66;5133570;27;20045;-61
2021/08/19 07:43:24;;;;;;;6.13;5.18;;;;;;;25.94;47.79;100407.81;5133689;27;20043;-61
2021/08/19 07:45:50;;;;;;;5.95;3.95;;;;;;;26.07;47.78;100415.91;5135455;27;20459;-61
2021/08/19 07:48:16;;;;;;;5.50;4.25;;;;;;;26.16;47.79;100412.63;5135014;27;20496;-61
2021/08/19 07:50:42;;;;;;;6.75;5.03;;;;;;;26.29;47.17;100419.84;5135014;27;20109;-62
2021/08/19 07:53:08;;;;;;;5.13;3.97;;;;;;;26.35;46.50;100402.41;5134850;27;20027;-62
2021/08/19 07:55:34;;;;;;;6.38;4.18;;;;;;;26.41;46.34;100417.97;5134882;27;20047;-63
2021/08/19 07:58:00;;;;;;;8.70;4.30;;;;;;;26.54;45.64;100415.84;5134876;27;20486;-62
2021/08/19 08:00:27;;;;;;;5.53;4.13;;;;;;;26.46;45.64;100409.84;5134820;27;20019;-62
2021/08/19 08:02:54;;;;;;;6.72;3.95;;;;;;;26.54;45.48;100415.03;5134841;27;20050;-62
2021/08/19 08:05:20;;;;;;;6.47;4.05;;;;;;;26.54;45.33;100415.84;5134788;27;20102;-61
2021/08/19 08:07:46;;;;;;;3.83;3.40;;;;;;;26.58;45.54;100416.22;5134829;27;20562;-61
2021/08/19 08:10:12;;;;;;;6.45;4.03;;;;;;;26.65;45.71;100419.72;5134411;27;20049;-62
2021/08/19 08:12:38;;;;;;;5.18;3.85;;;;;;;26.75;45.24;100419.13;5134723;27;20027;-62
2021/08/19 08:15:06;;;;;;;4.15;3.75;;;;;;;26.86;44.90;100421.94;5134427;27;20030;-62
2021/08/19 08:17:36;;;;;;;5.30;3.97;;;;;;;26.97;44.69;100423.84;5134356;27;20047;-62
2021/08/19 08:20:04;;;;;;;6.97;4.13;;;;;;;27.08;44.69;100419.44;5134355;27;20383;-62
2021/08/19 08:22:30;;;;;;;5.55;4.32;;;;;;;27.18;43.83;100417.72;5134279;27;20023;-63
2021/08/19 08:24:55;;;;;;;6.70;4.30;;;;;;;27.29;44.04;100416.94;5134314;27;20034;-62
2021/08/19 08:27:21;;;;;;;4.30;3.58;;;;;;;27.41;43.84;100419.69;5134563;27;20034;-62
2021/08/19 08:29:46;;;;;;;5.45;4.00;;;;;;;27.51;43.80;100414.38;5134329;27;20023;-62
2021/08/19 08:32:12;;;;;;;6.28;4.22;;;;;;;27.72;43.30;100420.09;5134748;27;20027;-63
2021/08/19 08:34:39;;;;;;;4.80;3.40;;;;;;;27.81;43.11;100417.78;5134172;27;20015;-62
2021/08/19 08:37:05;;;;;;;5.90;4.03;;;;;;;28.01;43.20;100424.59;5132535;27;20031;-63
2021/08/19 08:39:33;;;;;;;7.13;3.42;;;;;;;28.10;42.52;100427.78;5133368;27;20026;-62
2021/08/19 08:42:00;;;;;;;3.58;3.28;;;;;;;28.20;41.38;100430.75;5134043;27;20023;-63
2021/08/19 08:44:28;;;;;;;4.82;3.30;;;;;;;28.26;40.79;100427.84;5133896;27;20096;-62
2021/08/19 08:46:55;;;;;;;4.15;3.00;;;;;;;28.35;40.63;100429.16;5133974;27;20023;-62
2021/08/19 08:49:22;;;;;;;3.50;3.00;;;;;;;28.38;40.68;100414.81;5134211;27;20109;-63
2021/08/19 08:51:52;;;;;;;3.72;3.03;;;;;;;28.47;40.75;100421.66;5133922;27;20031;-63
2021/08/19 08:54:18;;;;;;;4.57;2.90;;;;;;;28.51;40.54;100420.06;5134186;27;20094;-63
2021/08/19 08:56:44;;;;;;;4.50;3.60;;;;;;;28.56;40.28;100424.03;5133836;27;20478;-63
2021/08/19 08:59:09;;;;;;;5.03;2.80;;;;;;;28.60;40.31;100420.53;5133737;27;20030;-63
2021/08/19 09:01:35;;;;;;;3.08;2.50;;;;;;;28.60;38.84;100416.91;5133823;27;20050;-63
2021/08/19 09:04:01;;;;;;;2.80;2.25;;;;;;;28.64;38.62;100424.44;5133594;27;20110;-63
2021/08/19 09:06:34;;;;;;;4.10;2.10;;;;;;;28.66;37.90;100421.44;5134102;27;20038;-64
2021/08/19 09:09:13;;;;;;;3.47;2.40;;;;;;;28.62;37.22;100423.03;5133709;27;20485;-64
2021/08/19 09:11:41;;;;;;;3.63;2.75;;;;;;;28.63;38.21;100428.28;5133553;27;20478;-63
2021/08/19 09:14:18;;;;;;;3.65;2.60;;;;;;;28.60;38.39;100423.28;5133422;27;20030;-64
2021/08/19 09:16:46;;;;;;;3.58;2.20;;;;;;;28.63;38.21;100421.94;5133274;27;20023;-64
2021/08/19 09:19:12;;;;;;;2.60;2.40;;;;;;;28.63;38.25;100420.00;5133404;27;20031;-64
2021/08/19 09:21:48;;;;;;;2.67;2.10;;;;;;;28.68;38.25;100417.34;5133469;27;20023;-64
2021/08/19 09:24:21;;;;;;;5.30;2.47;;;;;;;28.63;37.89;100414.47;5133233;27;20119;-65
2021/08/19 09:26:49;;;;;;;4.15;2.45;;;;;;;28.66;37.95;100421.44;5133344;27;20502;-64
2021/08/19 09:29:29;;;;;;;3.42;2.35;;;;;;;28.65;37.57;100412.31;5132863;27;20027;-64
2021/08/19 09:32:07;;;;;;;2.60;2.33;;;;;;;28.66;37.15;100413.16;5133332;27;20019;-64
2021/08/19 09:34:34;;;;;;;2.20;2.00;;;;;;;28.68;36.85;100417.34;5133234;27;20386;-64
2021/08/19 09:37:02;;;;;;;2.45;1.60;;;;;;;28.64;36.89;100410.66;5132863;27;20101;-64
2021/08/19 09:39:55;;;;;;;1.67;1.58;;;;;;;28.60;36.45;100408.63;5132912;27;20390;-64
2021/08/19 09:42:34;;;;;;;2.25;2.00;;;;;;;28.64;37.07;100418.06;5130607;27;20035;-64
2021/08/19 09:44:59;;;;;;;2.30;2.00;;;;;;;28.39;37.83;100413.75;5132689;27;20039;-63
2021/08/19 09:47:34;;;;;;;4.13;1.90;;;;;;;28.23;37.71;100403.53;5132639;27;20537;-63
2021/08/19 09:50:12;;;;;;;2.75;1.67;;;;;;;28.09;37.46;100396.59;5131939;27;20471;-64
2021/08/19 09:52:37;;;;;;;3.45;1.70;;;;;;;28.07;37.95;100395.19;5132335;27;20046;-64
2021/08/19 09:55:21;;;;;;;2.67;1.80;;;;;;;28.13;38.18;100394.22;5132672;27;20084;-63
2021/08/19 09:57:47;;;;;;;2.08;1.58;;;;;;;28.11;37.83;100399.97;5132663;27;20027;-64
2021/08/19 10:00:26;;;;;;;2.10;1.90;;;;;;;28.22;37.77;100399.09;5132422;27;20034;-64
2021/08/19 10:02:53;;;;;;;1.70;1.55;;;;;;;28.16;37.89;100379.91;5132652;27;20079;-63
2021/08/19 10:05:19;;;;;;;4.22;2.25;;;;;;;28.16;38.25;100394.56;5132614;27;20163;-63
2021/08/19 10:07:45;;;;;;;2.50;2.05;;;;;;;28.06;38.30;100397.13;5132506;27;20042;-62
2021/08/19 10:10:10;;;;;;;3.03;2.20;;;;;;;28.00;37.73;100395.34;5132210;27;20026;-62
2021/08/19 10:12:41;;;;;;;2.97;2.13;;;;;;;27.95;38.21;100388.91;5132265;27;20023;-63
2021/08/19 10:15:08;;;;;;;3.70;2.28;;;;;;;27.77;38.84;100387.13;5131946;27;20015;-63
2021/08/19 10:17:36;;;;;;;2.40;2.08;;;;;;;27.72;38.65;100388.91;5131002;27;20272;-64
2021/08/19 10:20:06;;;;;;;3.28;2.03;;;;;;;27.64;39.39;100381.06;5131984;27;20050;-64
2021/08/19 10:22:34;;;;;;;3.58;2.22;;;;;;;27.66;39.32;100381.66;5130742;27;20389;-63
2021/08/19 10:25:00;;;;;;;3.42;1.83;;;;;;;27.63;39.93;100385.72;5131957;27;20416;-62
2021/08/19 10:27:28;;;;;;;4.40;2.63;;;;;;;27.57;39.95;100372.91;5131978;27;20058;-62
2021/08/19 10:29:55;;;;;;;3.08;2.50;;;;;;;27.65;40.41;100378.06;5131903;27;20045;-63
2021/08/19 10:32:27;;;;;;;4.97;2.75;;;;;;;27.60;40.31;100375.16;5132190;27;20027;-63
2021/08/19 10:35:00;;;;;;;3.22;2.15;;;;;;;27.50;39.70;100380.47;5132210;27;20064;-64
2021/08/19 10:37:59;;;;;;;2.35;2.15;;;;;;;27.38;39.78;100381.59;5132244;27;20031;-64
2021/08/19 10:40:27;;;;;;;2.78;2.00;;;;;;;27.32;39.82;100372.38;5097846;27;20035;-64
2021/08/19 10:42:53;;;;;;;2.10;1.90;;;;;;;27.30;39.64;100369.00;5130544;27;20054;-64
2021/08/19 10:45:27;;;;;;;3.63;2.30;;;;;;;27.33;39.64;100365.78;5132155;27;20114;-64
2021/08/19 10:48:13;;;;;;;3.15;1.70;;;;;;;27.41;39.23;100364.56;5132029;27;20023;-64
2021/08/19 10:50:44;;;;;;;2.28;1.77;;;;;;;27.44;39.47;100356.63;5115850;27;20645;-63
2021/08/19 10:53:16;;;;;;;2.28;1.88;;;;;;;27.44;39.73;100358.56;5131425;27;20036;-64
2021/08/19 10:55:44;;;;;;;3.47;2.08;;;;;;;27.41;39.93;100370.09;5130448;28;20015;-64
2021/08/19 10:58:21;;;;;;;3.67;1.92;;;;;;;27.33;39.68;100362.19;5130527;28;20022;-63
2021/08/19 11:00:47;;;;;;;3.63;2.38;;;;;;;27.25;40.06;100357.06;5131702;27;20062;-63
2021/08/19 11:03:38;;;;;;;4.45;2.15;;;;;;;27.19;40.34;100349.72;5134465;27;20031;-63
2021/08/19 11:06:05;;;;;;;7.32;2.53;;;;;;;27.12;40.54;100360.03;5135809;27;20443;-63
2021/08/19 11:08:41;;;;;;;2.13;1.90;;;;;;;27.06;39.98;100358.22;5135998;27;20036;-62
2021/08/19 11:11:08;;;;;;;4.32;2.30;;;;;;;26.98;40.55;100353.91;5134561;27;20038;-63
2021/08/19 11:13:35;;;;;;;2.53;1.95;;;;;;;26.94;40.66;100355.50;5135685;27;20526;-64
2021/08/19 11:16:08;;;;;;;2.08;1.88;;;;;;;26.91;40.37;100358.72;5135738;27;20180;-63
2021/08/19 11:18:35;;;;;;;3.13;1.48;;;;;;;26.86;40.19;100350.34;5135662;27;20427;-63
2021/08/19 11:21:03;;;;;;;4.30;2.13;;;;;;;26.85;39.65;100348.66;5135555;27;20088;-64
2021/08/19 11:23:31;;;;;;;2.25;1.90;;;;;;;26.79;39.79;100346.84;5135537;27;20363;-64